Time;durP1;ratioP1;P1;durP2;ratioP2;P2;SDS_P1;SDS_P2;PMS_P1;PMS_P2;Temp;Humidity;BMP_temperature;BMP_pressure;BME280_temperature;BME280_humidity;BME280_pressure;Samples;Min_cycle;Max_cycle;Signal;HPM_P1;HPM_P2
2022/01/26 00:07:50;;;;;;;71.53;26.60;;;;;;;;;;5093467;27;20043;-78
2022/01/26 00:10:16;;;;;;;79.10;31.00;;;;;;;;;;5095622;28;20045;-78
2022/01/26 00:12:43;;;;;;;65.45;27.40;;;;;;;;;;5091420;28;20127;-78
2022/01/26 00:15:10;;;;;;;61.85;23.70;;;;;;;;;;5088844;28;20116;-78
2022/01/26 00:17:36;;;;;;;72.47;27.75;;;;;;;;;;5095380;28;20488;-78
2022/01/26 00:20:20;;;;;;;55.10;21.48;;;;;;;;;;5094015;28;20106;-78
2022/01/26 00:27:57;;;;;;;72.97;29.65;;;;;;;;;;5087798;28;20040;-78
2022/01/26 00:38:41;;;;;;;80.45;29.92;;;;;;;;;;5063838;28;20048;-78
2022/01/26 00:41:11;;;;;;;76.30;30.65;;;;;;;;;;5094285;28;20089;-78
2022/01/26 00:43:41;;;;;;;64.40;26.80;;;;;;;;;;5077432;28;20044;-78
2022/01/26 00:46:08;;;;;;;73.20;31.83;;;;;;;;;;5100301;28;20512;-78
2022/01/26 00:48:37;;;;;;;73.03;31.33;;;;;;;;;;5092222;28;20067;-78
2022/01/26 00:51:05;;;;;;;69.75;29.00;;;;;;;;;;5096242;28;20416;-78
2022/01/26 00:53:39;;;;;;;76.65;27.73;;;;;;;;;;5075987;28;20043;-78
2022/01/26 00:56:06;;;;;;;66.35;27.42;;;;;;;;;;5091480;27;20055;-78
2022/01/26 00:58:32;;;;;;;63.28;24.50;;;;;;;;;;5096219;27;20045;-78
2022/01/26 01:01:00;;;;;;;71.35;27.45;;;;;;;;;;5080799;27;20039;-79
2022/01/26 01:03:28;;;;;;;65.50;29.33;;;;;;;;;;5093174;27;20508;-78
2022/01/26 01:06:00;;;;;;;74.15;29.67;;;;;;;;;;5093359;27;20550;-79
2022/01/26 01:08:27;;;;;;;70.90;28.45;;;;;;;;;;5085975;27;20085;-78
2022/01/26 01:10:55;;;;;;;76.32;34.05;;;;;;;;;;5098257;28;20031;-78
2022/01/26 01:13:30;;;;;;;64.15;27.20;;;;;;;;;;5076392;27;20043;-78
2022/01/26 01:15:56;;;;;;;62.90;25.75;;;;;;;;;;5083208;27;20162;-78
2022/01/26 01:18:30;;;;;;;59.13;26.98;;;;;;;;;;5091606;28;20100;-78
2022/01/26 01:31:45;;;;;;;55.35;24.60;;;;;;;;;;5094708;27;20422;-78
2022/01/26 01:34:12;;;;;;;58.00;25.20;;;;;;;;;;5088829;27;20052;-78
2022/01/26 01:36:41;;;;;;;65.20;29.15;;;;;;;;;;5100620;27;20051;-78
2022/01/26 01:39:07;;;;;;;52.55;23.38;;;;;;;;;;5075031;27;20100;-78
2022/01/26 01:41:34;;;;;;;61.22;26.85;;;;;;;;;;5097113;27;20035;-78
2022/01/26 01:44:02;;;;;;;70.60;31.58;;;;;;;;;;5089392;27;20910;-78
2022/01/26 01:46:28;;;;;;;55.42;26.10;;;;;;;;;;5077635;27;20449;-78
2022/01/26 01:48:54;;;;;;;66.82;34.58;;;;;;;;;;5091497;27;20080;-78
2022/01/26 01:51:27;;;;;;;52.28;23.15;;;;;;;;;;5096013;27;20516;-78
2022/01/26 01:53:53;;;;;;;61.22;28.65;;;;;;;;;;5075011;27;20150;-78
2022/01/26 01:56:23;;;;;;;65.72;31.98;;;;;;;;;;5096710;28;20097;-78
2022/01/26 01:58:49;;;;;;;56.38;27.55;;;;;;;;;;5094028;27;20559;-78
2022/01/26 02:01:15;;;;;;;49.70;22.65;;;;;;;;;;5075022;27;20147;-78
2022/01/26 02:03:41;;;;;;;50.28;24.58;;;;;;;;;;5098220;27;20040;-78
2022/01/26 02:06:07;;;;;;;57.33;21.65;;;;;;;;;;5090777;27;20047;-79
2022/01/26 02:08:34;;;;;;;53.33;23.38;;;;;;;;;;5102253;27;20511;-79
2022/01/26 02:11:00;;;;;;;53.17;26.38;;;;;;;;;;5079888;27;20121;-79
2022/01/26 02:13:32;;;;;;;44.42;20.77;;;;;;;;;;5081596;27;20415;-78
2022/01/26 03:01:56;;;;;;;68.88;32.78;;;;;;;;;;5098494;28;20146;-78
2022/01/26 03:04:58;;;;;;;59.30;26.40;;;;;;;;;;5093748;28;20050;-78
2022/01/26 03:07:21;;;;;;;60.58;26.60;;;;;;;;;;5090243;28;20159;-78
2022/01/26 03:09:59;;;;;;;61.28;28.85;;;;;;;;;;5097013;28;20074;-78
2022/01/26 03:12:43;;;;;;;60.08;30.35;;;;;;;;;;5078314;28;20469;-78
2022/01/26 03:15:19;;;;;;;57.55;25.75;;;;;;;;;;5095496;28;20581;-77
2022/01/26 03:20:16;;;;;;;49.28;23.08;;;;;;;;;;5088244;28;20105;-78
2022/01/26 03:35:54;;;;;;;62.08;27.25;;;;;;;;;;5091313;28;20051;-78
2022/01/26 03:38:25;;;;;;;43.17;19.92;;;;;;;;;;5076262;28;20050;-78
2022/01/26 03:41:08;;;;;;;57.13;27.30;;;;;;;;;;5080115;28;20280;-78
2022/01/26 03:43:34;;;;;;;64.15;29.02;;;;;;;;;;5095754;28;20801;-77
2022/01/26 03:46:00;;;;;;;61.85;29.63;;;;;;;;;;5089410;28;20044;-78
2022/01/26 03:48:26;;;;;;;60.90;29.40;;;;;;;;;;5098513;28;20071;-78
2022/01/26 03:50:52;;;;;;;60.72;30.05;;;;;;;;;;5096540;28;20517;-78
2022/01/26 03:53:19;;;;;;;69.13;29.25;;;;;;;;;;5081614;27;20047;-78
2022/01/26 03:55:45;;;;;;;57.60;28.80;;;;;;;;;;5099991;27;20042;-78
2022/01/26 03:58:11;;;;;;;68.38;32.92;;;;;;;;;;5105412;27;20046;-78
2022/01/26 04:00:37;;;;;;;66.30;33.30;;;;;;;;;;5084913;27;20047;-78
2022/01/26 04:03:04;;;;;;;60.33;26.15;;;;;;;;;;5095708;27;20049;-78
2022/01/26 04:05:30;;;;;;;48.20;22.25;;;;;;;;;;5106185;27;20072;-79
2022/01/26 04:08:03;;;;;;;63.63;27.23;;;;;;;;;;5081696;28;20508;-78
2022/01/26 04:13:04;;;;;;;64.15;29.33;;;;;;;;;;5106207;27;20474;-78
2022/01/26 04:15:34;;;;;;;66.57;31.15;;;;;;;;;;5084723;27;20043;-78
2022/01/26 04:18:02;;;;;;;62.20;26.92;;;;;;;;;;5082662;27;20043;-79
2022/01/26 04:20:33;;;;;;;68.40;34.35;;;;;;;;;;5080084;27;20133;-78
2022/01/26 04:26:01;;;;;;;55.72;27.42;;;;;;;;;;5002278;28;20041;-78
2022/01/26 04:28:35;;;;;;;64.00;30.33;;;;;;;;;;5061215;28;20051;-78
2022/01/26 04:31:02;;;;;;;57.97;26.90;;;;;;;;;;5095056;27;20043;-78
2022/01/26 04:33:29;;;;;;;50.92;26.95;;;;;;;;;;5085247;27;20046;-78
2022/01/26 04:35:55;;;;;;;52.85;26.73;;;;;;;;;;5085828;27;20035;-78
2022/01/26 04:38:32;;;;;;;63.90;29.80;;;;;;;;;;5090297;27;20117;-78
2022/01/26 04:41:24;;;;;;;52.95;25.00;;;;;;;;;;5096083;27;20104;-78
2022/01/26 04:43:51;;;;;;;62.30;29.33;;;;;;;;;;5104172;27;20043;-78
2022/01/26 04:46:17;;;;;;;67.28;30.23;;;;;;;;;;5100894;27;20079;-78
2022/01/26 04:48:43;;;;;;;57.67;26.60;;;;;;;;;;5080404;27;20530;-78
2022/01/26 04:51:09;;;;;;;55.72;24.90;;;;;;;;;;5091555;28;20048;-78
2022/01/26 04:53:36;;;;;;;60.03;29.60;;;;;;;;;;5095676;28;20044;-79
2022/01/26 04:56:02;;;;;;;52.63;22.27;;;;;;;;;;5084355;28;20039;-79
2022/01/26 04:58:28;;;;;;;55.10;24.88;;;;;;;;;;5081149;28;20047;-79
2022/01/26 05:00:54;;;;;;;54.22;25.55;;;;;;;;;;5086936;28;20497;-79
2022/01/26 05:03:21;;;;;;;65.13;28.15;;;;;;;;;;5095237;28;20059;-79
2022/01/26 05:05:47;;;;;;;65.95;32.78;;;;;;;;;;5099404;27;20040;-78
2022/01/26 05:08:13;;;;;;;60.03;27.75;;;;;;;;;;5097134;28;20040;-78
2022/01/26 05:10:42;;;;;;;62.65;25.15;;;;;;;;;;5088887;28;20067;-78
2022/01/26 05:13:11;;;;;;;48.13;24.02;;;;;;;;;;5089713;27;20397;-78
2022/01/26 05:15:37;;;;;;;67.55;31.67;;;;;;;;;;5092281;27;20126;-78
2022/01/26 05:18:05;;;;;;;58.97;26.67;;;;;;;;;;5090811;28;20112;-78
2022/01/26 05:20:33;;;;;;;64.10;25.95;;;;;;;;;;5094232;28;20048;-78
2022/01/26 05:22:59;;;;;;;55.15;24.27;;;;;;;;;;5095054;28;20489;-78
2022/01/26 05:25:25;;;;;;;51.33;23.63;;;;;;;;;;5094385;28;20154;-78
2022/01/26 05:27:51;;;;;;;55.42;24.35;;;;;;;;;;5096180;28;20043;-77
2022/01/26 05:30:18;;;;;;;46.88;18.38;;;;;;;;;;5086516;28;20047;-78
2022/01/26 05:32:44;;;;;;;60.70;24.42;;;;;;;;;;5100391;28;20042;-78
2022/01/26 05:35:11;;;;;;;67.13;27.88;;;;;;;;;;5090668;28;20071;-79
2022/01/26 05:37:37;;;;;;;76.70;30.63;;;;;;;;;;5096014;28;20105;-79
2022/01/26 05:40:04;;;;;;;68.85;29.35;;;;;;;;;;5091708;28;20054;-78
2022/01/26 05:42:32;;;;;;;39.42;18.00;;;;;;;;;;5074709;28;20126;-78
2022/01/26 05:45:02;;;;;;;45.97;20.40;;;;;;;;;;5093849;28;20035;-78
2022/01/26 05:47:31;;;;;;;59.75;24.38;;;;;;;;;;5091898;28;20044;-78
2022/01/26 05:49:58;;;;;;;45.95;18.65;;;;;;;;;;5097746;28;20047;-78
2022/01/26 05:52:24;;;;;;;53.13;20.00;;;;;;;;;;5099849;28;20048;-78
2022/01/26 05:54:50;;;;;;;62.70;21.15;;;;;;;;;;5088360;28;20047;-78
2022/01/26 05:57:17;;;;;;;60.83;24.98;;;;;;;;;;5088766;28;20043;-78
2022/01/26 05:59:43;;;;;;;63.67;25.88;;;;;;;;;;5093890;28;20150;-78
2022/01/26 06:02:09;;;;;;;55.53;21.27;;;;;;;;;;5096120;28;20040;-78
2022/01/26 06:04:36;;;;;;;65.95;24.65;;;;;;;;;;5080918;28;20040;-78
2022/01/26 06:07:02;;;;;;;88.65;35.45;;;;;;;;;;5087865;28;20097;-79
2022/01/26 06:09:28;;;;;;;87.80;33.15;;;;;;;;;;5092953;28;20127;-79
2022/01/26 06:11:54;;;;;;;37.65;14.60;;;;;;;;;;5092149;28;20064;-78
2022/01/26 06:14:20;;;;;;;73.88;27.88;;;;;;;;;;5092920;28;20524;-78
2022/01/26 06:16:46;;;;;;;65.85;25.30;;;;;;;;;;5094518;28;20088;-78
2022/01/26 06:19:12;;;;;;;63.60;25.63;;;;;;;;;;5079079;28;20051;-78
2022/01/26 06:21:39;;;;;;;84.07;31.17;;;;;;;;;;5071858;28;20123;-78
2022/01/26 06:24:06;;;;;;;73.13;28.30;;;;;;;;;;5073752;28;20097;-78
2022/01/26 06:26:32;;;;;;;80.97;31.20;;;;;;;;;;5082191;28;20519;-78
2022/01/26 06:28:58;;;;;;;88.60;34.97;;;;;;;;;;5077224;28;20436;-78
2022/01/26 06:31:27;;;;;;;103.07;38.00;;;;;;;;;;5082444;28;20055;-78
2022/01/26 06:33:53;;;;;;;80.60;28.70;;;;;;;;;;5086455;28;20055;-78
2022/01/26 06:36:19;;;;;;;68.43;25.13;;;;;;;;;;5073195;28;20127;-78
2022/01/26 06:38:48;;;;;;;843.50;91.50;;;;;;;;;;5095805;27;20047;-78
2022/01/26 06:41:22;;;;;;;50.33;20.38;;;;;;;;;;5094613;28;20055;-78
2022/01/26 06:43:53;;;;;;;86.43;35.90;;;;;;;;;;5096597;28;20080;-78
2022/01/26 06:46:29;;;;;;;73.75;30.13;;;;;;;;;;5088801;28;20046;-78
2022/01/26 06:51:24;;;;;;;107.78;32.20;;;;;;;;;;5092373;28;20290;-77
2022/01/26 06:53:50;;;;;;;71.25;24.13;;;;;;;;;;5094731;28;20074;-77
2022/01/26 06:56:16;;;;;;;58.58;24.83;;;;;;;;;;5097518;28;20082;-77
2022/01/26 06:58:42;;;;;;;34.45;15.82;;;;;;;;;;5091004;28;20115;-77
2022/01/26 07:01:08;;;;;;;58.22;26.42;;;;;;;;;;5073131;28;20044;-78
2022/01/26 07:03:35;;;;;;;63.55;28.98;;;;;;;;;;5096424;28;20077;-77
2022/01/26 07:06:01;;;;;;;61.70;27.73;;;;;;;;;;5078980;28;20488;-77
2022/01/26 07:08:27;;;;;;;49.05;23.13;;;;;;;;;;5087756;28;20093;-77
2022/01/26 07:10:53;;;;;;;59.03;25.58;;;;;;;;;;5097043;28;20128;-77
2022/01/26 07:13:19;;;;;;;55.70;23.67;;;;;;;;;;5096853;28;20591;-77
2022/01/26 07:23:44;;;;;;;70.18;25.70;;;;;;;;;;5098825;28;20079;-77
2022/01/26 07:26:10;;;;;;;78.90;28.45;;;;;;;;;;5094631;28;20035;-77
2022/01/26 07:28:38;;;;;;;42.10;18.00;;;;;;;;;;5090908;28;20088;-77
2022/01/26 07:31:05;;;;;;;123.68;34.28;;;;;;;;;;5100104;28;20039;-77
2022/01/26 07:33:32;;;;;;;42.38;18.48;;;;;;;;;;5101037;28;20051;-77
2022/01/26 07:35:58;;;;;;;56.33;25.02;;;;;;;;;;5079717;28;20131;-77
2022/01/26 07:38:26;;;;;;;36.42;14.32;;;;;;;;;;5084039;28;20512;-77
2022/01/26 07:40:52;;;;;;;41.35;18.80;;;;;;;;;;5092689;28;20046;-77
2022/01/26 07:43:18;;;;;;;60.00;23.95;;;;;;;;;;5080302;28;20043;-77
2022/01/26 07:45:44;;;;;;;38.38;15.00;;;;;;;;;;5099241;28;20420;-77
2022/01/26 07:48:10;;;;;;;79.78;31.80;;;;;;;;;;5074931;28;20123;-78
2022/01/26 07:50:36;;;;;;;36.97;13.63;;;;;;;;;;5093053;28;20036;-78
2022/01/26 07:53:03;;;;;;;58.35;22.95;;;;;;;;;;5070800;28;20112;-78
2022/01/26 07:55:30;;;;;;;37.65;16.58;;;;;;;;;;5093834;28;20077;-78
2022/01/26 07:57:57;;;;;;;49.65;22.25;;;;;;;;;;5095185;28;20055;-78
2022/01/26 08:00:23;;;;;;;46.00;18.88;;;;;;;;;;5101075;28;20047;-78
2022/01/26 08:02:50;;;;;;;56.72;23.27;;;;;;;;;;5087548;28;20432;-78
2022/01/26 08:05:16;;;;;;;63.88;28.67;;;;;;;;;;5097218;27;20032;-78
2022/01/26 08:07:43;;;;;;;63.55;28.05;;;;;;;;;;5094758;28;20088;-78
2022/01/26 08:10:09;;;;;;;75.88;31.05;;;3.90;43.30;;;;;;5101853;28;20039;-78
2022/01/26 08:12:37;;;;;;;69.78;27.38;;;;;;;;;;5079944;28;20450;-79
2022/01/26 08:15:03;;;;;;;68.90;27.83;;;;;;;;;;5098610;27;20781;-78
2022/01/26 08:17:29;;;;;;;74.15;27.95;;;;;;;;;;5092745;28;20122;-77
2022/01/26 08:19:56;;;;;;;66.22;27.90;;;;;;;;;;5094476;28;20089;-77
2022/01/26 08:22:25;;;;;;;74.07;27.98;;;;;;;;;;5101117;28;20558;-77
2022/01/26 08:24:51;;;;;;;69.65;29.30;;;;;;;;;;5076284;28;20471;-77
2022/01/26 08:27:19;;;;;;;364.67;50.75;;;;;;;;;;5097732;28;20031;-76
2022/01/26 08:29:53;;;;;;;70.63;26.83;;;;;;;;;;5077133;28;20596;-77
2022/01/26 08:32:19;;;;;;;74.78;29.80;;;;;;;;;;5073720;28;20050;-80
2022/01/26 08:34:45;;;;;;;73.85;31.30;;;;;;;;;;5093715;28;20435;-80
2022/01/26 08:37:11;;;;;;;77.22;32.45;;;;;;;;;;5073824;27;20394;-81
2022/01/26 08:39:38;;;;;;;74.65;24.92;;;;;;;;;;5098850;28;20357;-78
2022/01/26 08:42:08;;;;;;;59.97;25.48;;;;;;;;;;5088694;28;20036;-79
2022/01/26 08:44:35;;;;;;;70.72;30.50;;;;;;;;;;5094117;28;20047;-78
2022/01/26 08:47:01;;;;;;;53.38;22.98;;;;;;;;;;5092297;28;20063;-78
2022/01/26 08:49:27;;;;;;;39.65;14.77;;;;;;;;;;5097860;28;20237;-79
2022/01/26 08:51:55;;;;;;;68.28;26.30;;;;;;;;;;5095544;28;20062;-78
2022/01/26 08:54:22;;;;;;;75.95;30.80;;;;;;;;;;5099785;28;20052;-79
2022/01/26 08:56:50;;;;;;;60.95;25.13;;;4.40;39.60;;;;;;5077613;28;20124;-80
2022/01/26 08:59:16;;;;;;;62.42;25.02;;;;;;;;;;5094323;28;20548;-79
2022/01/26 09:01:43;;;;;;;58.50;24.55;;;;;;;;;;5095905;28;20092;-82
2022/01/26 09:04:09;;;;;;;63.28;27.35;;;;;;;;;;5069974;28;20047;-79
2022/01/26 09:06:39;;;;;;;57.58;23.58;;;;;;;;;;5093377;28;20043;-79
2022/01/26 09:09:07;;;;;;;60.08;26.55;;;;;;;;;;5097475;28;20051;-81
2022/01/26 09:11:36;;;;;;;66.05;29.65;;;;;;;;;;5098378;28;20040;-77
2022/01/26 09:14:08;;;;;;;55.72;26.15;;;;;;;;;;5094166;28;20533;-76
2022/01/26 09:16:35;;;;;;;61.05;27.27;;;;;;;;;;5095968;28;20512;-76
2022/01/26 09:19:09;;;;;;;54.28;23.13;;;;;;;;;;5097273;28;20043;-79
2022/01/26 09:21:35;;;;;;;61.63;27.07;;;;;;;;;;5080175;28;20070;-79
2022/01/26 09:24:02;;;;;;;60.33;27.45;;;;;;;;;;5088961;28;20381;-79
2022/01/26 09:26:28;;;;;;;57.83;23.63;;;;;;;;;;5077804;28;20468;-80
2022/01/26 09:28:54;;;;;;;60.47;26.55;;;;;;;;;;5092772;28;20032;-79
2022/01/26 09:31:20;;;;;;;58.88;24.95;;;;;;;;;;5091713;28;20040;-79
2022/01/26 09:33:46;;;;;;;60.67;26.33;;;;;;;;;;5095015;28;20039;-80
2022/01/26 09:36:12;;;;;;;45.58;17.13;;;;;;;;;;5072574;28;20167;-80
2022/01/26 09:38:39;;;;;;;61.03;26.45;;;;;;;;;;5098748;27;20306;-79
2022/01/26 09:41:05;;;;;;;59.15;25.15;;;;;;;;;;5097210;28;20363;-79
2022/01/26 09:43:32;;;;;;;52.22;23.75;;;;;;;;;;5069607;28;20044;-79
2022/01/26 09:45:58;;;;;;;61.80;26.65;;;;;;;;;;5085948;28;20048;-79
2022/01/26 09:48:24;;;;;;;54.63;21.58;;;;;;;;;;5097433;28;20055;-79
2022/01/26 09:50:55;;;;;;;59.22;25.70;;;;;;;;;;5086271;28;20358;-79
2022/01/26 09:53:27;;;;;;;45.17;17.55;;;;;;;;;;5070292;28;20055;-79
2022/01/26 09:55:53;;;;;;;40.47;16.73;;;;;;;;;;5091534;28;20040;-79
2022/01/26 09:58:20;;;;;;;46.85;20.30;;;;;;;;;;5093095;28;20051;-81
2022/01/26 10:00:46;;;;;;;62.80;26.33;;;;;;;;;;5085851;28;20916;-80
2022/01/26 10:03:14;;;;;;;36.72;16.50;;;;;;;;;;5097978;28;20163;-79
2022/01/26 10:05:45;;;;;;;37.70;17.50;;;;;;;;;;5093636;28;20123;-79
2022/01/26 10:16:20;;;;;;;60.97;27.00;;;;;;;;;;5097706;27;20043;-79
2022/01/26 10:18:41;;;;;;;56.65;22.67;;;;;;;;;;5091654;28;20035;-80
2022/01/26 10:21:08;;;;;;;46.75;18.88;;;;;;;;;;5088508;28;20075;-79
2022/01/26 10:23:37;;;;;;;38.17;14.57;;;;;;;;;;5093366;28;20505;-79
2022/01/26 10:26:18;;;;;;;46.53;16.55;;;4.70;49.80;;;;;;5090264;28;20044;-79
2022/01/26 10:28:50;;;;;;;38.88;15.98;;;;;;;;;;5091920;28;20036;-79
2022/01/26 10:31:16;;;;;;;34.60;14.55;;;;;;;;;;5088633;28;20502;-79
2022/01/26 10:33:54;;;;;;;55.40;23.73;;;;;;;;;;5091481;28;20040;-79
2022/01/26 10:36:21;;;;;;;61.03;27.13;;;;;;;;;;5092939;28;20044;-79
2022/01/26 10:39:06;;;;;;;32.78;14.98;;;;;;;;;;5098474;27;20611;-79
2022/01/26 10:41:32;;;;;;;34.25;12.77;;;;;;;;;;5089201;28;20043;-78
2022/01/26 10:44:00;;;;;;;30.27;12.88;;;;;;;;;;5097697;28;20181;-79
2022/01/26 10:46:29;;;;;;;44.50;19.25;;;;;;;;;;5073983;28;20035;-82
2022/01/26 10:49:09;;;;;;;45.58;16.35;;;;;;;;;;5097742;28;20048;-79
2022/01/26 10:54:37;;;;;;;42.13;16.35;;;;;;;;;;5091653;28;21299;-78
2022/01/26 10:57:10;;;;;;;41.80;16.90;;;;;;;;;;5075519;28;20089;-79
2022/01/26 10:59:41;;;;;;;51.53;21.52;;;4.60;74.30;;;;;;5091509;28;20035;-78
2022/01/26 11:02:09;;;;;;;27.00;13.00;;;;;;;;;;5093906;28;20058;-83
2022/01/26 11:04:36;;;;;;;35.05;13.40;;;;;;;;;;5093745;28;20031;-80
2022/01/26 11:07:03;;;;;;;39.03;15.77;;;;;;;;;;5075859;28;20032;-80
2022/01/26 11:09:31;;;;;;;37.10;16.90;;;;;;;;;;5076584;28;20104;-81
2022/01/26 11:12:00;;;;;;;40.58;13.88;;;;;;;;;;5114288;28;20265;-81
2022/01/26 11:14:37;;;;;;;40.83;18.20;;;;;;;;;;5098887;28;20767;-81
2022/01/26 11:17:04;;;;;;;51.30;21.67;;;;;;;;;;5094762;28;20054;-80
2022/01/26 11:19:39;;;;;;;48.25;21.13;;;;;;;;;;5079848;28;20054;-79
2022/01/26 11:22:06;;;;;;;47.50;21.20;;;;;;;;;;5081018;28;20463;-79
2022/01/26 11:24:41;;;;;;;34.92;14.60;;;;;;;;;;5093247;28;20490;-81
2022/01/26 11:27:07;;;;;;;38.65;17.58;;;;;;;;;;5083000;28;20036;-79
2022/01/26 11:29:36;;;;;;;47.45;18.33;;;;;;;;;;5077672;28;20122;-79
2022/01/26 11:32:10;;;;;;;40.97;17.45;;;;;;;;;;5078291;28;20127;-80
2022/01/26 11:34:36;;;;;;;42.92;17.40;;;;;;;;;;5095868;28;20040;-79
2022/01/26 11:37:05;;;;;;;51.95;21.55;;;;;;;;;;5091641;27;20053;-80
2022/01/26 11:45:11;;;;;;;41.88;19.13;;;;;;;;;;5100875;28;20181;-79
2022/01/26 11:47:39;;;;;;;40.13;17.30;;;;;;;;;;5095526;28;20552;-79
2022/01/26 11:50:08;;;;;;;42.13;18.08;;;;;;;;;;5083671;28;20053;-79
2022/01/26 11:52:35;;;;;;;42.13;19.15;;;;;;;;;;5099588;28;20047;-79
2022/01/26 11:55:04;;;;;;;47.00;20.15;;;;;;;;;;5076750;28;20040;-83
2022/01/26 11:57:38;;;;;;;29.30;14.85;;;;;;;;;;5091266;28;20517;-79
2022/01/26 12:00:07;;;;;;;45.40;22.42;;;;;;;;;;5087109;28;20050;-82
2022/01/26 12:02:53;;;;;;;40.95;19.75;;;;;;;;;;5077145;28;20377;-79
2022/01/26 12:05:22;;;;;;;29.20;14.70;;;;;;;;;;5088946;28;20471;-80
2022/01/26 12:07:53;;;;;;;41.70;16.30;;;;;;;;;;5094677;27;20042;-80
2022/01/26 12:10:23;;;;;;;33.22;14.68;;;;;;;;;;5102262;27;20047;-79
2022/01/26 12:12:58;;;;;;;40.13;18.45;;;;;;;;;;5079067;27;20497;-77
2022/01/26 12:15:27;;;;;;;27.40;13.27;;;;;;;;;;5101402;27;20050;-77
2022/01/26 12:18:12;;;;;;;36.63;15.60;;;;;;;;;;5095446;28;20123;-78
2022/01/26 12:36:51;;;;;;;33.88;13.82;;;;;;;;;;5096247;27;20050;-78
2022/01/26 12:41:11;;;;;;;37.67;13.27;;;;;;;;;;5116942;27;20585;-78
2022/01/26 12:42:24;;;;;;;44.70;17.42;;;;;;;;;;5101412;27;20045;-78
2022/01/26 12:45:03;;;;;;;36.88;17.58;;;;;;;;;;5099679;27;20118;-78
2022/01/26 12:47:30;;;;;;;29.95;14.02;;;;;;;;;;5097178;27;20035;-78
2022/01/26 12:49:57;;;;;;;33.00;15.10;;;;;;;;;;5103499;27;20039;-78
2022/01/26 12:52:23;;;;;;;25.63;10.80;;;;;;;;;;5093288;28;20074;-78
2022/01/26 12:54:50;;;;;;;33.40;13.10;;;;;;;;;;5097399;28;20528;-78
2022/01/26 12:57:16;;;;;;;28.25;11.95;;;;;;;;;;5091903;28;20039;-78
2022/01/26 12:59:43;;;;;;;32.58;14.35;;;;;;;;;;5086915;28;20040;-77
2022/01/26 13:02:10;;;;;;;23.85;8.73;;;6.10;44.80;;;;;;5094066;28;20094;-78
2022/01/26 13:04:36;;;;;;;27.52;11.23;;;;;;;;;;5075080;28;21524;-79
2022/01/26 13:07:04;;;;;;;36.45;11.73;;;;;;;;;;5066756;28;20148;-78
2022/01/26 13:09:41;;;;;;;22.52;9.68;;;;;;;;;;5074156;28;20172;-78
2022/01/26 13:12:09;;;;;;;36.92;14.35;;;;;;;;;;5076002;28;20504;-77
2022/01/26 13:14:48;;;;;;;25.20;9.68;;;;;;;;;;5093907;27;20055;-78
2022/01/26 13:25:41;;;;;;;;;;;;;;;;;;5096207;28;20957;-77
2022/01/26 13:36:51;;;;;;;41.25;15.30;;;;;;;;;;5089130;28;20137;-77
2022/01/26 13:39:39;;;;;;;35.72;14.85;;;;;;;;;;5091085;28;20100;-77
2022/01/26 13:44:53;;;;;;;26.75;12.18;;;;;;;;;;5097997;28;20306;-77
2022/01/26 14:00:24;;;;;;;31.75;9.88;;;;;;;;;;5094344;28;20082;-78
2022/01/26 14:02:57;;;;;;;29.83;12.00;;;;;;;;;;5096885;28;20091;-77
2022/01/26 14:05:23;;;;;;;39.38;15.68;;;;;;;;;;5092030;27;20101;-77
2022/01/26 14:07:50;;;;;;;31.05;12.55;;;;;;;;;;5093379;28;20440;-77
2022/01/26 14:10:16;;;;;;;39.45;17.38;;;;;;;;;;5091759;28;20040;-77
2022/01/26 14:12:47;;;;;;;38.55;12.98;;;;;;;;;;5092435;28;20130;-77
2022/01/26 14:15:19;;;;;;;32.85;12.20;;;;;;;;;;5087140;28;20044;-82
2022/01/26 14:19:00;;;;;;;28.63;11.25;;;;;;;;;;5091145;28;20104;-78
2022/01/26 14:25:55;;;;;;;27.30;12.53;;;;;;;;;;5089765;28;20043;-79
2022/01/26 14:28:28;;;;;;;30.25;12.13;;;;;;;;;;5071577;28;20293;-79
2022/01/26 14:31:09;;;;;;;26.60;11.57;;;;;;;;;;5088437;28;20146;-79
2022/01/26 14:50:58;;;;;;;32.25;13.23;;;;;;;;;;5090718;28;20043;-78
2022/01/26 15:01:25;;;;;;;36.58;17.33;;;;;;;;;;5093654;28;20169;-79
2022/01/26 15:33:20;;;;;;;36.92;14.85;;;;;;;;;;5086988;28;20043;-79
2022/01/26 15:49:45;;;;;;;29.80;13.82;;;;;;;;;;5096976;28;20054;-81
2022/01/26 15:57:55;;;;;;;22.77;10.90;;;;;;;;;;5096003;27;20118;-80
2022/01/26 16:17:27;;;;;;;56.10;21.45;;;;;;;;;;5100665;27;20047;-81
2022/01/26 18:49:20;;;;;;;27.55;12.80;;;;;;;;;;5093321;28;20032;-84
2022/01/26 18:51:48;;;;;;;;;;;;;;;;;;5095792;27;20622;-85
2022/01/26 18:54:14;;;;;;;32.38;13.13;;;;;;;;;;5088522;28;20042;-85
2022/01/26 18:56:41;;;;;;;34.30;15.38;;;;;;;;;;5073306;28;20412;-86
2022/01/26 18:59:08;;;;;;;31.00;12.88;;;;;;;;;;5089444;28;20060;-85
2022/01/26 19:01:35;;;;;;;37.38;16.15;;;;;;;;;;5092731;28;20054;-86
2022/01/26 19:04:01;;;;;;;32.13;16.90;;;;;;;;;;5092599;28;20646;-85
2022/01/26 19:06:27;;;;;;;35.63;16.30;;;;;;;;;;5090700;28;20565;-85
2022/01/26 19:08:53;;;;;;;25.10;13.30;;;;;;;;;;5090207;28;20629;-85
2022/01/26 19:11:21;;;;;;;33.25;17.23;;;;;;;;;;5090551;28;20043;-84
2022/01/26 19:13:49;;;;;;;25.98;12.45;;;;;;;;;;5092484;28;20050;-85
2022/01/26 19:16:41;;;;;;;30.83;12.32;;;;;;;;;;5093043;28;20039;-85
2022/01/26 19:24:24;;;;;;;25.77;11.85;;;;;;;;;;5102851;28;20122;-85
2022/01/26 19:26:54;;;;;;;27.75;11.77;;;;;;;;;;5104162;28;20050;-85
2022/01/26 19:29:34;;;;;;;33.85;12.55;;;;;;;;;;5101750;28;20052;-85
2022/01/26 19:32:43;;;;;;;22.55;11.80;;;;;;;;;;5097551;28;20035;-85
2022/01/26 19:41:52;;;;;;;33.03;15.20;;;;;;;;;;5097297;28;20059;-86
2022/01/26 19:47:13;;;;;;;20.20;10.48;;;;;;;;;;5096485;28;20576;-85
2022/01/26 19:51:36;;;;;;;21.15;10.05;;;;;;;;;;5095545;28;20039;-85
2022/01/26 19:54:02;;;;;;;26.45;10.15;;;;;;;;;;5104316;27;20051;-86
2022/01/26 19:56:28;;;;;;;31.83;15.60;;;;;;;;;;5097881;28;20051;-85
2022/01/26 19:58:54;;;;;;;18.83;8.48;;;;;;;;;;5099653;28;20397;-86
2022/01/26 20:01:21;;;;;;;32.00;12.52;;;;;;;;;;5098871;28;20093;-85
2022/01/26 20:03:48;;;;;;;21.30;11.18;;;;;;;;;;5083278;28;20040;-85
2022/01/26 20:06:15;;;;;;;31.42;15.05;;;;;;;;;;5075066;28;20032;-85
2022/01/26 20:11:11;;;;;;;20.27;9.10;;;;;;;;;;5091242;28;20408;-85
2022/01/26 20:13:41;;;;;;;27.75;11.20;;;;;;;;;;5096118;28;20049;-85
2022/01/26 20:16:08;;;;;;;25.00;11.00;;;;;;;;;;5073131;28;20104;-86
2022/01/26 20:18:35;;;;;;;28.45;12.57;;;6.80;52.40;;;;;;5077499;28;20039;-85
2022/01/26 20:21:02;;;;;;;35.97;15.60;;;;;;;;;;5076347;28;20547;-85
2022/01/26 20:23:35;;;;;;;26.35;11.32;;;;;;;;;;5095159;28;20126;-85
2022/01/26 20:26:11;;;;;;;40.08;14.57;;;;;;;;;;5095939;28;20527;-85
2022/01/26 20:28:40;;;;;;;21.48;10.15;;;;;;;;;;5097332;28;20468;-83
2022/01/26 20:31:16;;;;;;;36.00;12.65;;;;;;;;;;5088357;28;20067;-83
2022/01/26 20:33:42;;;;;;;34.10;14.02;;;;;;;;;;5094483;28;20235;-83
2022/01/26 20:36:08;;;;;;;28.58;12.80;;;;;;;;;;5094882;28;20083;-83
2022/01/26 20:38:34;;;;;;;28.80;13.45;;;;;;;;;;5076705;28;20039;-83
2022/01/26 20:41:01;;;;;;;32.25;13.93;;;;;;;;;;5079704;28;20046;-83
2022/01/26 20:43:27;;;;;;;24.23;11.52;;;;;;;;;;5094067;28;20516;-83
2022/01/26 20:45:53;;;;;;;19.15;6.75;;;;;;;;;;5095668;28;20077;-83
2022/01/26 20:48:19;;;;;;;24.35;10.38;;;;;;;;;;5093630;28;20039;-83
2022/01/26 20:50:46;;;;;;;20.65;8.10;;;;;;;;;;5089560;28;20042;-83
2022/01/26 20:53:12;;;;;;;22.60;10.27;;;;;;;;;;5092619;28;20480;-81
2022/01/26 20:55:39;;;;;;;27.52;12.38;;;;;;;;;;5094702;28;20125;-81
2022/01/26 20:58:06;;;;;;;24.25;10.00;;;;;;;;;;5095780;28;20053;-82
2022/01/26 21:00:32;;;;;;;23.60;10.60;;;;;;;;;;5092770;28;20590;-83
2022/01/26 21:02:58;;;;;;;22.65;9.13;;;;;;;;;;5096008;28;20039;-83
2022/01/26 21:05:27;;;;;;;20.23;8.30;;;;;;;;;;5078003;28;21512;-83
2022/01/26 21:07:53;;;;;;;17.17;7.80;;;;;;;;;;5090988;28;20424;-84
2022/01/26 21:10:20;;;;;;;31.02;10.18;;;;;;;;;;5095954;28;20040;-83
2022/01/26 21:12:46;;;;;;;26.40;10.10;;;;;;;;;;5074109;28;20063;-83
2022/01/26 21:15:12;;;;;;;30.92;8.52;;;;;;;;;;5095556;28;20475;-83
2022/01/26 21:17:39;;;;;;;20.58;8.63;;;;;;;;;;5098581;28;20117;-87
2022/01/26 21:20:06;;;;;;;23.48;9.77;;;;;;;;;;5091302;28;20173;-83
2022/01/26 21:22:33;;;;;;;27.08;10.40;;;;;;;;;;5094680;28;20035;-83
2022/01/26 21:24:59;;;;;;;23.17;10.85;;;;;;;;;;5095166;28;20047;-84
2022/01/26 21:27:25;;;;;;;34.17;14.07;;;;;;;;;;5089889;28;20906;-83
2022/01/26 21:29:51;;;;;;;24.15;9.18;;;;;;;;;;5088398;28;20043;-84
2022/01/26 21:32:17;;;;;;;23.23;7.47;;;;;;;;;;5095607;28;20508;-84
2022/01/26 21:34:45;;;;;;;26.38;11.70;;;;;;;;;;5090388;28;20043;-83
2022/01/26 21:37:11;;;;;;;25.33;8.88;;;;;;;;;;5094811;27;20075;-82
2022/01/26 21:39:37;;;;;;;31.48;10.85;;;;;;;;;;5095244;28;20040;-83
2022/01/26 21:42:03;;;;;;;25.60;10.02;;;;;;;;;;5089968;28;20031;-83
2022/01/26 21:44:33;;;;;;;23.80;9.05;;;;;;;;;;5112883;27;20090;-83